createdAt,value
2023-05-14T00:01:43.597Z,100.00
2023-05-14T00:04:11.475Z,100.00
2023-05-14T00:06:39.372Z,100.00
2023-05-14T00:09:07.150Z,100.00
2023-05-14T00:11:36.222Z,100.00
2023-05-14T00:14:04.268Z,100.00
2023-05-14T00:16:32.354Z,100.00
2023-05-14T00:19:00.363Z,100.00
2023-05-14T00:21:28.315Z,100.00
2023-05-14T00:23:56.396Z,100.00
2023-05-14T00:26:24.276Z,100.00
2023-05-14T00:28:53.498Z,100.00
2023-05-14T00:31:21.301Z,100.00
2023-05-14T00:33:49.217Z,100.00
2023-05-14T00:36:17.089Z,100.00
2023-05-14T00:38:45.092Z,100.00
2023-05-14T00:41:13.056Z,100.00
2023-05-14T00:43:41.068Z,100.00
2023-05-14T00:46:12.394Z,100.00
2023-05-14T00:48:40.879Z,100.00
2023-05-14T00:51:08.896Z,100.00
2023-05-14T00:53:37.416Z,100.00
2023-05-14T00:56:06.902Z,100.00
2023-05-14T00:58:35.016Z,100.00
2023-05-14T01:01:03.326Z,100.00
2023-05-14T01:03:33.757Z,100.00
2023-05-14T01:06:14.535Z,100.00
2023-05-14T01:09:05.884Z,100.00
2023-05-14T01:11:42.515Z,100.00
2023-05-14T01:14:21.405Z,100.00
2023-05-14T01:16:54.893Z,100.00
2023-05-14T01:19:43.949Z,100.00
2023-05-14T01:22:14.765Z,100.00
2023-05-14T01:24:42.552Z,100.00
2023-05-14T01:27:25.596Z,100.00
2023-05-14T01:30:18.032Z,100.00
2023-05-14T01:32:51.751Z,100.00
2023-05-14T01:35:23.885Z,100.00
2023-05-14T01:37:56.689Z,100.00
2023-05-14T01:40:26.106Z,100.00
2023-05-14T01:42:56.448Z,100.00
2023-05-14T01:45:24.497Z,100.00
2023-05-14T01:47:52.848Z,100.00
2023-05-14T01:50:21.240Z,100.00
2023-05-14T01:52:51.191Z,100.00
2023-05-14T01:55:20.913Z,100.00
2023-05-14T01:57:48.709Z,100.00
2023-05-14T02:00:17.378Z,100.00
2023-05-14T02:02:45.183Z,100.00
2023-05-14T02:05:13.609Z,100.00
2023-05-14T02:07:41.533Z,100.00
2023-05-14T02:10:11.240Z,100.00
2023-05-14T02:12:40.762Z,100.00
2023-05-14T02:15:11.029Z,100.00
2023-05-14T02:17:39.098Z,100.00
2023-05-14T02:20:10.231Z,100.00
2023-05-14T02:22:38.408Z,100.00
2023-05-14T02:25:08.184Z,100.00
2023-05-14T02:27:36.180Z,100.00
2023-05-14T02:30:07.057Z,100.00
2023-05-14T02:32:34.957Z,100.00
2023-05-14T02:35:03.246Z,100.00
2023-05-14T02:37:31.351Z,100.00
2023-05-14T02:39:59.332Z,100.00
2023-05-14T02:42:27.281Z,100.00
2023-05-14T02:44:55.098Z,100.00
2023-05-14T02:47:24.484Z,100.00
2023-05-14T02:49:52.585Z,100.00
2023-05-14T02:52:21.271Z,100.00
2023-05-14T02:54:49.170Z,100.00
2023-05-14T02:57:17.038Z,100.00
2023-05-14T02:59:44.783Z,100.00
2023-05-14T03:02:32.680Z,100.00
2023-05-14T03:05:01.221Z,100.00
2023-05-14T03:07:29.139Z,100.00
2023-05-14T03:09:57.233Z,100.00
2023-05-14T03:12:25.539Z,100.00
2023-05-14T03:14:53.373Z,100.00
2023-05-14T03:17:21.281Z,100.00
2023-05-14T03:19:50.547Z,100.00
2023-05-14T03:22:18.583Z,100.00
2023-05-14T03:24:46.419Z,100.00
2023-05-14T03:27:14.391Z,100.00
2023-05-14T03:29:42.168Z,100.00
2023-05-14T03:32:10.139Z,100.00
2023-05-14T03:34:38.261Z,100.00
2023-05-14T03:37:07.400Z,100.00
2023-05-14T03:39:36.092Z,100.00
2023-05-14T03:42:06.037Z,100.00
2023-05-14T03:44:34.143Z,100.00
2023-05-14T03:47:02.000Z,100.00
2023-05-14T03:49:29.906Z,100.00
2023-05-14T03:51:59.300Z,100.00
2023-05-14T03:54:28.563Z,100.00
2023-05-14T03:56:56.343Z,100.00
2023-05-14T03:59:24.426Z,100.00
2023-05-14T04:01:52.244Z,100.00
2023-05-14T04:04:20.845Z,100.00
2023-05-14T04:06:48.705Z,100.00
2023-05-14T04:09:16.647Z,100.00
2023-05-14T04:11:46.226Z,100.00
2023-05-14T04:14:14.037Z,100.00
2023-05-14T04:16:42.340Z,100.00
2023-05-14T04:19:10.304Z,100.00
2023-05-14T04:21:38.230Z,100.00
2023-05-14T04:24:07.157Z,100.00
2023-05-14T04:26:35.305Z,100.00
2023-05-14T04:29:04.495Z,100.00
2023-05-14T04:31:32.333Z,100.00
2023-05-14T04:34:00.406Z,100.00
2023-05-14T04:36:28.166Z,100.00
2023-05-14T04:38:56.516Z,100.00
2023-05-14T04:41:24.301Z,100.00
2023-05-14T04:43:56.711Z,100.00
2023-05-14T04:46:26.572Z,100.00
2023-05-14T04:48:54.462Z,100.00
2023-05-14T04:51:22.297Z,100.00
2023-05-14T04:53:50.240Z,100.00
2023-05-14T04:56:18.040Z,100.00
2023-05-14T04:58:45.728Z,100.00
2023-05-14T05:01:13.699Z,100.00
2023-05-14T05:03:43.228Z,100.00
2023-05-14T05:06:11.265Z,100.00
2023-05-14T05:08:39.795Z,100.00
2023-05-14T05:11:07.578Z,100.00
2023-05-14T05:13:35.552Z,100.00
2023-05-14T05:16:03.758Z,100.00
2023-05-14T05:18:31.763Z,100.00
2023-05-14T05:21:00.994Z,100.00
2023-05-14T05:23:28.935Z,100.00
2023-05-14T05:25:56.849Z,100.00
2023-05-14T05:28:24.649Z,100.00
2023-05-14T05:30:52.577Z,100.00
2023-05-14T05:33:20.604Z,100.00
2023-05-14T05:35:49.973Z,100.00
2023-05-14T05:38:19.157Z,100.00
2023-05-14T05:40:47.835Z,100.00
2023-05-14T05:43:16.028Z,100.00
2023-05-14T05:45:45.906Z,100.00
2023-05-14T05:48:13.846Z,100.00
2023-05-14T05:50:42.710Z,100.00
2023-05-14T05:53:10.639Z,100.00
2023-05-14T05:55:40.968Z,100.00
2023-05-14T05:58:08.815Z,100.00
2023-05-14T06:00:36.826Z,100.00
2023-05-14T06:03:04.618Z,100.00
2023-05-14T06:05:32.538Z,100.00
2023-05-14T06:08:00.393Z,100.00
2023-05-14T06:10:28.274Z,100.00
2023-05-14T06:12:57.422Z,100.00
2023-05-14T06:15:25.321Z,100.00
2023-05-14T06:17:53.186Z,100.00
2023-05-14T06:20:21.400Z,100.00
2023-05-14T06:22:49.519Z,100.00
2023-05-14T06:25:17.594Z,96.98
2023-05-14T06:27:45.444Z,99.96
2023-05-14T06:30:16.019Z,97.30
2023-05-14T06:32:43.828Z,100.00
2023-05-14T06:35:11.719Z,100.00
2023-05-14T06:37:39.512Z,94.99
2023-05-14T06:40:08.813Z,90.74
2023-05-14T06:42:36.554Z,88.07
2023-05-14T06:45:07.540Z,91.26
2023-05-14T06:47:36.897Z,84.78
2023-05-14T06:50:05.922Z,98.38
2023-05-14T06:52:33.935Z,96.63
2023-05-14T06:55:01.752Z,81.63
2023-05-14T06:57:29.994Z,80.54
2023-05-14T06:59:57.741Z,81.82
2023-05-14T07:02:25.617Z,78.54
2023-05-14T07:04:54.852Z,78.13
2023-05-14T07:07:23.034Z,76.23
2023-05-14T07:09:50.972Z,74.06
2023-05-14T07:12:18.829Z,73.58
2023-05-14T07:14:46.812Z,71.82
2023-05-14T07:17:15.297Z,74.46
2023-05-14T07:19:43.144Z,74.77
2023-05-14T07:22:12.462Z,75.75
2023-05-14T07:24:40.384Z,72.78
2023-05-14T07:27:08.944Z,67.61
2023-05-14T07:29:36.762Z,75.00
2023-05-14T07:32:04.945Z,72.74
2023-05-14T07:34:32.787Z,73.21
2023-05-14T07:37:01.243Z,69.51
2023-05-14T07:39:30.311Z,76.62
2023-05-14T07:41:58.186Z,70.85
2023-05-14T07:44:26.050Z,71.50
2023-05-14T07:46:53.989Z,73.93
2023-05-14T07:49:21.854Z,67.51
2023-05-14T07:51:49.818Z,63.19
2023-05-14T07:54:17.722Z,66.59
2023-05-14T07:56:46.893Z,64.34
2023-05-14T07:59:14.773Z,59.98
2023-05-14T08:01:42.694Z,56.23
2023-05-14T08:04:15.156Z,56.24
2023-05-14T08:06:43.102Z,54.18
2023-05-14T08:09:10.983Z,56.35
2023-05-14T08:11:39.171Z,54.34
2023-05-14T08:14:08.350Z,54.88
2023-05-14T08:16:36.332Z,54.64
2023-05-14T08:19:04.554Z,55.97
2023-05-14T08:21:32.789Z,53.29
2023-05-14T08:24:00.731Z,56.96
2023-05-14T08:26:28.528Z,53.36
2023-05-14T08:28:56.294Z,54.38
2023-05-14T08:31:25.560Z,52.11
2023-05-14T08:33:53.331Z,51.67
2023-05-14T08:36:21.208Z,49.83
2023-05-14T08:38:50.296Z,52.96
2023-05-14T08:41:19.054Z,48.61
2023-05-14T08:44:02.239Z,47.65
2023-05-14T08:46:33.027Z,44.82
2023-05-14T08:49:14.706Z,46.51
2023-05-14T08:51:44.444Z,48.43
2023-05-14T08:54:16.896Z,43.14
2023-05-14T08:56:50.528Z,44.41
2023-05-14T08:59:19.900Z,44.83
2023-05-14T09:01:53.676Z,41.72
2023-05-14T09:04:23.606Z,44.79
2023-05-14T09:06:53.839Z,44.78
2023-05-14T09:09:23.461Z,43.27
2023-05-14T09:11:52.999Z,43.75
2023-05-14T09:14:23.096Z,42.21
2023-05-14T09:16:52.949Z,41.57
2023-05-14T09:19:21.865Z,41.24
2023-05-14T09:21:50.498Z,44.62
2023-05-14T09:24:22.919Z,42.85
2023-05-14T09:26:52.932Z,42.64
2023-05-14T09:29:20.989Z,40.82
2023-05-14T09:31:52.524Z,40.31
2023-05-14T09:34:26.525Z,37.54
2023-05-14T09:36:59.165Z,39.74
2023-05-14T09:39:28.650Z,38.35
2023-05-14T09:41:56.975Z,39.75
2023-05-14T09:44:25.627Z,39.26
2023-05-14T09:46:55.854Z,37.80
2023-05-14T09:49:23.861Z,37.83
2023-05-14T09:51:51.984Z,42.88
2023-05-14T09:54:20.103Z,38.55
2023-05-14T09:56:47.848Z,37.56
2023-05-14T09:59:15.670Z,37.24
2023-05-14T10:01:44.557Z,38.07
2023-05-14T10:04:14.921Z,39.39
2023-05-14T10:06:51.204Z,35.58
2023-05-14T10:09:26.237Z,34.66
2023-05-14T10:11:59.092Z,35.11
2023-05-14T10:14:36.061Z,35.85
2023-05-14T10:17:06.520Z,34.34
2023-05-14T10:19:40.203Z,35.97
2023-05-14T10:22:12.679Z,35.70
2023-05-14T10:24:41.536Z,34.86
2023-05-14T10:27:10.388Z,33.86
2023-05-14T10:29:38.565Z,31.66
2023-05-14T10:32:09.505Z,32.47
2023-05-14T10:34:41.531Z,31.67
2023-05-14T10:37:12.204Z,35.04
2023-05-14T10:39:43.017Z,31.24
2023-05-14T10:42:13.218Z,30.60
2023-05-14T10:44:51.080Z,32.92
2023-05-14T10:47:19.992Z,32.07
2023-05-14T10:49:49.561Z,33.21
2023-05-14T10:52:19.613Z,33.62
2023-05-14T10:54:53.080Z,36.34
2023-05-14T10:57:22.865Z,32.76
2023-05-14T10:59:54.917Z,33.12
2023-05-14T11:02:27.777Z,30.21
2023-05-14T11:05:00.594Z,29.18
2023-05-14T11:07:32.402Z,30.65
2023-05-14T11:10:04.721Z,29.76
2023-05-14T11:12:33.475Z,28.64
2023-05-14T11:15:03.896Z,28.36
2023-05-14T11:17:32.809Z,29.56
2023-05-14T11:20:02.393Z,29.27
2023-05-14T11:22:30.376Z,29.43
2023-05-14T11:24:58.276Z,31.44
2023-05-14T11:27:26.459Z,31.89
2023-05-14T11:29:55.827Z,31.72
2023-05-14T11:32:24.198Z,30.58
2023-05-14T11:34:52.132Z,31.65
2023-05-14T11:37:21.404Z,30.66
2023-05-14T11:39:52.198Z,29.98
2023-05-14T11:42:22.262Z,31.98
2023-05-14T11:44:52.018Z,32.19
2023-05-14T11:47:22.158Z,31.39
2023-05-14T11:49:50.140Z,30.79
2023-05-14T11:52:19.411Z,30.16
2023-05-14T11:54:51.933Z,30.18
2023-05-14T11:57:21.927Z,31.73
2023-05-14T11:59:57.729Z,31.71
2023-05-14T12:02:29.301Z,30.90
2023-05-14T12:04:57.805Z,30.28
2023-05-14T12:07:30.133Z,30.05
2023-05-14T12:10:03.266Z,28.91
2023-05-14T12:12:36.520Z,29.36
2023-05-14T12:15:13.291Z,28.60
2023-05-14T12:17:41.875Z,28.19
2023-05-14T12:20:12.245Z,29.54
2023-05-14T12:22:42.583Z,30.39
2023-05-14T12:25:14.128Z,30.43
2023-05-14T12:27:45.487Z,28.65
2023-05-14T12:32:45.974Z,29.11
2023-05-14T12:35:13.894Z,29.86
2023-05-14T12:37:42.534Z,28.91
2023-05-14T12:40:12.613Z,28.42
2023-05-14T12:42:40.487Z,30.22
2023-05-14T12:45:09.146Z,28.62
2023-05-14T12:47:37.734Z,27.99
2023-05-14T12:50:07.687Z,27.98
2023-05-14T12:52:39.454Z,29.32
2023-05-14T12:55:09.876Z,29.91
2023-05-14T12:57:39.764Z,31.25
2023-05-14T13:00:14.224Z,33.57
2023-05-14T13:02:43.636Z,31.78
2023-05-14T13:05:12.474Z,32.31
2023-05-14T13:07:41.312Z,33.24
2023-05-14T13:10:11.445Z,33.77
2023-05-14T13:12:41.119Z,33.17
2023-05-14T13:15:11.029Z,33.05
2023-05-14T13:17:39.063Z,31.99
2023-05-14T13:20:08.647Z,32.43
2023-05-14T13:22:36.607Z,30.89
2023-05-14T13:25:06.008Z,30.35
2023-05-14T13:27:35.774Z,32.41
2023-05-14T13:30:06.678Z,33.41
2023-05-14T13:32:34.942Z,31.36
2023-05-14T13:35:02.881Z,32.05
2023-05-14T13:37:30.861Z,31.61
2023-05-14T13:39:58.737Z,31.88
2023-05-14T13:42:27.073Z,33.27
2023-05-14T13:44:56.360Z,27.36
2023-05-14T13:47:26.336Z,27.96
2023-05-14T13:49:55.050Z,27.24
2023-05-14T13:52:23.187Z,25.79
2023-05-14T13:54:51.114Z,23.39
2023-05-14T13:57:19.317Z,26.46
2023-05-14T13:59:47.854Z,25.76
2023-05-14T14:02:16.017Z,24.64
2023-05-14T14:04:45.208Z,26.28
2023-05-14T14:07:13.045Z,25.52
2023-05-14T14:09:40.882Z,24.25
2023-05-14T14:12:09.837Z,25.03
2023-05-14T14:14:37.806Z,26.57
2023-05-14T14:17:05.681Z,26.39
2023-05-14T14:19:33.432Z,25.59
2023-05-14T14:22:02.832Z,25.35
2023-05-14T14:24:30.616Z,26.04
2023-05-14T14:26:58.504Z,25.63
2023-05-14T14:29:26.472Z,27.42
2023-05-14T14:31:54.358Z,25.32
2023-05-14T14:34:22.308Z,25.86
2023-05-14T14:36:50.157Z,27.49
2023-05-14T14:39:19.596Z,24.69
2023-05-14T14:41:48.281Z,26.08
2023-05-14T14:44:16.147Z,25.42
2023-05-14T14:46:44.110Z,26.97
2023-05-14T14:49:11.932Z,26.17
2023-05-14T14:51:40.655Z,28.33
2023-05-14T14:54:08.530Z,28.20
2023-05-14T14:56:37.985Z,28.31
2023-05-14T14:59:05.910Z,29.53
2023-05-14T15:01:33.891Z,28.25
2023-05-14T15:04:01.717Z,29.19
2023-05-14T15:06:29.569Z,29.12
2023-05-14T15:08:57.291Z,29.22
2023-05-14T15:11:25.962Z,28.35
2023-05-14T15:13:55.108Z,29.08
2023-05-14T15:16:23.114Z,28.54
2023-05-14T15:18:50.948Z,28.07
2023-05-14T15:21:18.856Z,26.98
2023-05-14T15:23:46.895Z,26.51
2023-05-14T15:26:14.779Z,27.71
2023-05-14T15:28:42.548Z,26.81
2023-05-14T15:31:11.790Z,27.06
2023-05-14T15:33:41.544Z,27.48
2023-05-14T15:36:09.541Z,28.42
2023-05-14T15:38:37.343Z,27.94
2023-05-14T15:41:05.801Z,29.79
2023-05-14T15:43:33.590Z,29.95
2023-05-14T15:46:01.597Z,30.62
2023-05-14T15:48:30.934Z,30.80
2023-05-14T15:50:59.175Z,28.21
2023-05-14T15:53:27.159Z,27.79
2023-05-14T15:55:55.139Z,28.34
2023-05-14T15:58:22.898Z,28.39
2023-05-14T16:00:50.748Z,28.98
2023-05-14T16:03:18.755Z,28.76
2023-05-14T16:05:48.510Z,28.84
2023-05-14T16:08:16.369Z,28.42
2023-05-14T16:10:44.149Z,29.84
2023-05-14T16:13:11.863Z,29.40
2023-05-14T16:15:40.123Z,29.10
2023-05-14T16:18:08.140Z,29.22
2023-05-14T16:20:36.137Z,29.95
2023-05-14T16:23:05.319Z,29.33
2023-05-14T16:25:33.261Z,29.97
2023-05-14T16:28:01.127Z,29.18
2023-05-14T16:30:28.950Z,30.23
2023-05-14T16:32:56.867Z,29.93
2023-05-14T16:35:24.752Z,30.26
2023-05-14T16:37:52.715Z,30.99
2023-05-14T16:40:23.302Z,29.60
2023-05-14T16:42:51.682Z,29.46
2023-05-14T16:45:19.596Z,29.86
2023-05-14T16:47:47.612Z,29.85
2023-05-14T16:50:15.623Z,30.78
2023-05-14T16:52:43.463Z,31.45
2023-05-14T16:55:11.398Z,31.28
2023-05-14T16:57:40.677Z,35.59
2023-05-14T17:00:10.658Z,36.82
2023-05-14T17:02:38.932Z,38.47
2023-05-14T17:05:08.536Z,39.29
2023-05-14T17:07:38.076Z,40.97
2023-05-14T17:10:07.682Z,41.18
2023-05-14T17:12:36.018Z,42.78
2023-05-14T17:15:07.757Z,44.38
2023-05-14T17:17:36.023Z,44.58
2023-05-14T17:20:08.475Z,44.15
2023-05-14T17:22:36.644Z,46.68
2023-05-14T17:25:05.545Z,46.68
2023-05-14T17:27:33.585Z,46.77
2023-05-14T17:30:01.409Z,48.48
2023-05-14T17:32:31.202Z,47.70
2023-05-14T17:34:59.334Z,47.96
2023-05-14T17:37:27.422Z,47.30
2023-05-14T17:39:55.379Z,51.06
2023-05-14T17:42:23.264Z,50.43
2023-05-14T17:44:50.973Z,50.85
2023-05-14T17:47:20.499Z,50.16
2023-05-14T17:49:50.810Z,49.23
2023-05-14T17:52:19.192Z,47.66
2023-05-14T17:54:47.003Z,48.52
2023-05-14T17:57:15.044Z,47.26
2023-05-14T17:59:42.885Z,48.05
2023-05-14T18:02:10.850Z,49.67
2023-05-14T18:04:38.627Z,49.63
2023-05-14T18:07:08.408Z,49.89
2023-05-14T18:09:36.351Z,48.37
2023-05-14T18:12:04.785Z,48.86
2023-05-14T18:14:32.561Z,49.96
2023-05-14T18:17:00.524Z,51.05
2023-05-14T18:19:28.285Z,52.00
2023-05-14T18:21:56.170Z,52.76
2023-05-14T18:24:26.105Z,53.25
2023-05-14T18:26:54.613Z,55.07
2023-05-14T18:29:22.459Z,54.16
2023-05-14T18:31:50.331Z,54.75
2023-05-14T18:34:18.084Z,53.41
2023-05-14T18:36:46.033Z,53.69
2023-05-14T18:39:13.828Z,54.30
2023-05-14T18:41:42.987Z,56.60
2023-05-14T18:44:10.757Z,58.59
2023-05-14T18:46:38.765Z,60.19
2023-05-14T18:49:06.499Z,62.93
2023-05-14T18:51:34.272Z,63.43
2023-05-14T18:54:02.054Z,64.75
2023-05-14T18:56:30.172Z,63.65
2023-05-14T18:58:59.392Z,63.98
2023-05-14T19:01:28.023Z,64.79
2023-05-14T19:03:56.188Z,68.79
2023-05-14T19:06:24.276Z,78.03
2023-05-14T19:08:53.501Z,79.22
2023-05-14T19:11:21.920Z,81.92
2023-05-14T19:13:49.989Z,86.05
2023-05-14T19:16:19.310Z,93.45
2023-05-14T19:18:47.149Z,95.72
2023-05-14T19:21:15.341Z,95.77
2023-05-14T19:23:43.524Z,96.19
2023-05-14T19:26:11.393Z,100.00
2023-05-14T19:28:39.507Z,99.42
2023-05-14T19:31:07.469Z,98.72
2023-05-14T19:33:36.636Z,99.58
2023-05-14T19:36:05.518Z,100.00
2023-05-14T19:38:34.074Z,100.00
2023-05-14T19:41:01.888Z,100.00
2023-05-14T19:43:29.883Z,100.00
2023-05-14T19:48:25.648Z,100.00
2023-05-14T19:50:54.910Z,100.00
2023-05-14T19:53:29.360Z,100.00
2023-05-14T19:55:57.544Z,100.00
2023-05-14T19:58:26.452Z,100.00
2023-05-14T20:00:56.666Z,100.00
2023-05-14T20:03:27.560Z,100.00
2023-05-14T20:05:56.894Z,100.00
2023-05-14T20:08:24.998Z,100.00
2023-05-14T20:10:53.123Z,100.00
2023-05-14T20:13:23.242Z,100.00
2023-05-14T20:15:53.285Z,100.00
2023-05-14T20:18:21.026Z,100.00
2023-05-14T20:20:49.046Z,100.00
2023-05-14T20:23:18.273Z,100.00
2023-05-14T20:25:46.476Z,100.00
2023-05-14T20:28:14.233Z,100.00
2023-05-14T20:30:42.444Z,100.00
2023-05-14T20:33:10.484Z,100.00
2023-05-14T20:35:38.370Z,100.00
2023-05-14T20:38:06.553Z,100.00
2023-05-14T20:40:36.912Z,100.00
2023-05-14T20:43:04.804Z,100.00
2023-05-14T20:45:32.791Z,100.00
2023-05-14T20:48:00.740Z,100.00
2023-05-14T20:50:28.823Z,100.00
2023-05-14T20:52:56.685Z,100.00
2023-05-14T20:55:24.724Z,100.00
2023-05-14T20:57:54.062Z,100.00
2023-05-14T21:00:21.886Z,100.00
2023-05-14T21:02:49.960Z,100.00
2023-05-14T21:05:18.434Z,100.00
2023-05-14T21:07:46.337Z,100.00
2023-05-14T21:10:14.206Z,100.00
2023-05-14T21:12:42.838Z,100.00
2023-05-14T21:15:13.363Z,100.00
2023-05-14T21:17:41.352Z,100.00
2023-05-14T21:20:13.327Z,100.00
2023-05-14T21:22:41.117Z,100.00
2023-05-14T21:25:09.833Z,100.00
2023-05-14T21:27:37.828Z,100.00
2023-05-14T21:30:07.598Z,100.00
2023-05-14T21:32:36.869Z,100.00
2023-05-14T21:35:05.737Z,100.00
2023-05-14T21:37:33.707Z,100.00
2023-05-14T21:40:01.556Z,100.00
2023-05-14T21:42:29.482Z,100.00
2023-05-14T21:44:57.234Z,100.00
2023-05-14T21:47:25.202Z,100.00
2023-05-14T21:49:54.387Z,100.00
2023-05-14T21:52:22.137Z,100.00
2023-05-14T21:54:49.921Z,100.00
2023-05-14T21:57:17.909Z,100.00
2023-05-14T21:59:45.642Z,100.00
2023-05-14T22:02:13.536Z,100.00
2023-05-14T22:04:41.443Z,100.00
2023-05-14T22:07:10.740Z,100.00
2023-05-14T22:09:38.480Z,100.00
2023-05-14T22:12:07.732Z,100.00
2023-05-14T22:14:35.750Z,100.00
2023-05-14T22:17:04.608Z,100.00
2023-05-14T22:19:33.034Z,100.00
2023-05-14T22:22:00.946Z,100.00
2023-05-14T22:24:30.114Z,100.00
2023-05-14T22:26:57.961Z,100.00
2023-05-14T22:29:25.939Z,100.00
2023-05-14T22:31:53.809Z,100.00
2023-05-14T22:34:21.727Z,100.00
2023-05-14T22:36:49.616Z,100.00
2023-05-14T22:39:17.438Z,100.00
2023-05-14T22:41:46.695Z,100.00
2023-05-14T22:44:14.568Z,100.00
2023-05-14T22:46:42.715Z,100.00
2023-05-14T22:49:10.574Z,100.00
2023-05-14T22:51:38.630Z,100.00
2023-05-14T22:54:06.837Z,100.00
2023-05-14T22:56:35.495Z,100.00
2023-05-14T22:59:04.925Z,100.00
2023-05-14T23:01:33.164Z,100.00
2023-05-14T23:04:01.047Z,100.00
2023-05-14T23:06:30.303Z,100.00
2023-05-14T23:08:58.242Z,100.00
2023-05-14T23:11:26.975Z,100.00
2023-05-14T23:13:54.793Z,100.00
2023-05-14T23:16:24.401Z,100.00
2023-05-14T23:18:52.793Z,100.00
2023-05-14T23:21:20.813Z,100.00
2023-05-14T23:23:48.642Z,100.00
2023-05-14T23:26:16.395Z,100.00
2023-05-14T23:28:44.270Z,100.00
2023-05-14T23:31:12.047Z,100.00
2023-05-14T23:33:41.395Z,100.00
2023-05-14T23:36:10.057Z,100.00
2023-05-14T23:38:38.148Z,100.00
2023-05-14T23:41:06.031Z,100.00
2023-05-14T23:43:33.902Z,100.00
2023-05-14T23:46:02.581Z,100.00
2023-05-14T23:48:31.103Z,100.00
2023-05-14T23:51:00.521Z,100.00
2023-05-14T23:53:28.282Z,100.00
2023-05-14T23:55:56.451Z,100.00
2023-05-14T23:58:24.605Z,100.00
